Time;durP1;ratioP1;P1;durP2;ratioP2;P2;SDS_P1;SDS_P2;PMS_P1;PMS_P2;Temp;Humidity;BMP_temperature;BMP_pressure;BME280_temperature;BME280_humidity;BME280_pressure;Samples;Min_cycle;Max_cycle;Signal;HPM_P1;HPM_P2
2021/10/07 00:02:23;;;;;;;13.20;7.75;;;;;;;12.66;95.87;102213.84;5047326;28;20447;-49
2021/10/07 00:04:50;;;;;;;16.83;7.88;;;;;;;12.64;96.08;102215.97;5054941;28;20063;-49
2021/10/07 00:07:18;;;;;;;21.10;9.40;;;;;;;12.65;96.39;102226.69;5054773;28;20180;-47
2021/10/07 00:09:45;;;;;;;14.85;8.60;;;;;;;12.67;96.18;102223.69;5049538;28;20037;-49
2021/10/07 00:12:13;;;;;;;13.77;7.60;;;;;;;12.71;96.34;102228.41;5044850;28;20044;-49
2021/10/07 00:14:41;;;;;;;15.57;7.80;;;;;;;12.70;95.83;102225.91;5040324;28;20124;-45
2021/10/07 00:17:08;;;;;;;15.63;8.05;;;;;;;12.70;95.29;102234.97;5054827;28;20060;-47
2021/10/07 00:19:36;;;;;;;16.80;8.20;;;;;;;12.69;95.46;102238.75;5053871;28;20044;-45
2021/10/07 00:22:04;;;;;;;13.80;7.40;;;;;;;12.65;95.24;102229.41;5040401;28;20399;-48
2021/10/07 00:24:31;;;;;;;15.07;8.05;;;;;;;12.61;95.01;102238.38;5033282;28;20119;-47
2021/10/07 00:26:59;;;;;;;18.48;8.75;;;;;;;12.58;95.30;102239.69;5052975;28;20037;-47
2021/10/07 00:29:44;;;;;;;15.00;7.93;;;;;;;12.57;95.50;102238.00;5053069;28;20384;-52
2021/10/07 00:32:19;;;;;;;17.97;8.90;;;;;;;12.55;95.54;102237.41;5039258;28;20045;-49
2021/10/07 00:40:07;;;;;;;15.85;8.57;;;;;;;12.51;95.67;102244.47;5046510;28;20053;-49
2021/10/07 00:42:35;;;;;;;15.80;9.02;;;;;;;12.50;95.81;102248.28;5049269;28;20041;-46
2021/10/07 00:45:04;;;;;;;19.40;9.10;;;;;;;12.48;95.97;102250.41;5053819;28;20055;-46
2021/10/07 00:47:32;;;;;;;18.80;8.65;;;;;;;12.48;96.15;102244.94;5053279;28;20045;-51
2021/10/07 00:50:00;;;;;;;17.98;8.60;;;;;;;12.48;95.71;102244.94;5053452;28;20052;-48
2021/10/07 00:52:27;;;;;;;15.60;8.88;;;;;;;12.49;96.43;102252.09;5047543;28;20088;-52
2021/10/07 00:54:56;;;;;;;16.20;9.07;;;;;;;12.51;96.18;102253.50;5040563;28;20400;-51
2021/10/07 00:57:23;;;;;;;18.40;8.65;;;;;;;12.48;94.86;102253.16;5053438;28;20041;-50
2021/10/07 00:59:52;;;;;;;18.17;8.45;;;;;;;12.42;95.08;102246.78;5025994;28;20045;-50
2021/10/07 01:02:20;;;;;;;17.95;9.40;;;;;;;12.42;95.50;102248.69;5039109;28;20500;-50
2021/10/07 01:04:48;;;;;;;15.98;8.50;;;;;;;12.45;95.75;102246.28;5051949;28;20041;-49
2021/10/07 01:07:16;;;;;;;15.57;8.50;;;;;;;12.47;95.94;102252.31;5053471;28;20041;-51
2021/10/07 01:09:45;;;;;;;14.77;8.35;;;;;;;12.50;94.97;102253.75;5053405;28;20090;-47
2021/10/07 01:12:13;;;;;;;15.18;8.57;;;;;;;12.52;94.75;102249.69;5045709;28;20155;-49
2021/10/07 01:14:52;;;;;;;17.38;8.75;;;;;;;12.52;94.63;102254.31;5048990;28;20507;-48
2021/10/07 01:17:22;;;;;;;16.42;9.00;;;;;;;12.50;94.61;102262.75;5034323;28;20057;-49
2021/10/07 01:19:52;;;;;;;18.15;8.38;;;;;;;12.50;94.51;102264.69;5044666;28;20120;-47
2021/10/07 01:22:22;;;;;;;15.68;8.65;;;;;;;12.51;94.04;102266.34;5046698;28;20044;-51
2021/10/07 01:24:50;;;;;;;17.65;9.02;;;;;;;12.52;94.15;102265.25;5045079;28;20509;-48
2021/10/07 01:27:20;;;;;;;12.48;7.72;;;;;;;12.54;94.43;102268.59;5052789;28;20511;-48
2021/10/07 01:29:57;;;;;;;18.90;9.40;;;;;;;12.56;94.62;102266.44;5050230;28;20037;-51
2021/10/07 01:32:25;;;;;;;16.00;8.55;;;;;;;12.58;94.53;102273.31;5047889;28;20056;-47
2021/10/07 01:34:52;;;;;;;20.27;9.50;;;;;;;12.61;94.62;102282.94;5043636;28;20037;-48
2021/10/07 01:37:20;;;;;;;17.75;10.13;;;;;;;12.63;94.32;102282.66;5052811;28;20515;-49
2021/10/07 01:39:48;;;;;;;20.83;11.75;;;;;;;12.65;94.20;102284.13;5044217;28;20428;-48
2021/10/07 01:42:15;;;;;;;20.60;11.27;;;;;;;12.61;94.52;102277.47;5040086;28;20099;-50
2021/10/07 01:44:43;;;;;;;20.92;11.32;;;;;;;12.60;95.15;102275.78;5052455;28;20045;-50
2021/10/07 01:47:10;;;;;;;17.83;11.65;;;;;;;12.59;95.13;102271.41;5052332;28;20075;-50
2021/10/07 01:49:38;;;;;;;16.40;11.52;;;;;;;12.54;94.55;102272.13;5021601;28;20041;-47
2021/10/07 01:52:06;;;;;;;19.55;13.20;;;;;;;12.48;94.97;102273.13;5042647;28;20435;-50
2021/10/07 01:54:33;;;;;;;18.38;12.18;;;;;;;12.45;95.44;102278.25;5051050;28;20059;-48
2021/10/07 01:57:01;;;;;;;17.63;11.85;;;;;;;12.40;95.40;102276.25;5052165;28;20064;-51
2021/10/07 01:59:29;;;;;;;16.75;11.00;;;;;;;12.35;96.31;102285.19;5045341;28;20561;-47
2021/10/07 02:01:56;;;;;;;15.15;11.48;;;;;;;12.33;95.88;102290.06;5041732;28;20048;-51
2021/10/07 02:04:24;;;;;;;14.10;11.00;;;;;;;12.30;96.28;102293.28;5037298;28;20133;-52
2021/10/07 02:06:52;;;;;;;15.45;9.15;;;;;;;12.26;96.61;102299.47;5052527;28;20044;-52
2021/10/07 02:09:19;;;;;;;16.30;10.93;;;;;;;12.25;97.43;102295.94;5049765;28;20049;-49
2021/10/07 02:11:47;;;;;;;14.15;10.35;;;;;;;12.27;97.18;102303.88;5052147;28;20044;-50
2021/10/07 02:14:14;;;;;;;15.15;10.65;;;;;;;12.29;96.98;102302.56;5042693;28;20460;-51
2021/10/07 02:16:42;;;;;;;13.82;10.45;;;;;;;12.30;96.73;102309.69;5048469;28;20060;-49
2021/10/07 02:19:10;;;;;;;14.38;10.73;;;;;;;12.29;96.82;102313.50;5051846;28;20040;-50
2021/10/07 02:21:56;;;;;;;13.77;10.48;;;;;;;12.29;97.01;102308.03;5038027;28;20507;-51
2021/10/07 02:24:25;;;;;;;15.10;8.85;;;;;;;12.30;97.87;102308.84;5037780;28;20091;-51
2021/10/07 02:26:53;;;;;;;14.25;9.90;;;;;;;12.32;97.17;102318.47;5046845;28;20049;-50
2021/10/07 02:29:21;;;;;;;13.10;9.63;;;;;;;12.34;97.32;102316.34;5050463;28;20049;-48
2021/10/07 02:31:50;;;;;;;11.48;8.48;;;;;;;12.36;97.81;102324.28;5038930;28;20046;-49
2021/10/07 02:34:18;;;;;;;12.02;8.90;;;;;;;12.37;97.52;102320.47;5045130;28;20072;-50
2021/10/07 02:36:46;;;;;;;12.18;9.15;;;;;;;12.41;97.68;102323.53;5051655;28;20099;-50
2021/10/07 02:39:16;;;;;;;14.88;9.70;;;;;;;12.41;97.06;102331.75;5051937;28;20048;-50
2021/10/07 02:41:43;;;;;;;12.75;9.80;;;;;;;12.40;97.35;102336.38;5043735;28;20868;-47
2021/10/07 02:44:11;;;;;;;11.43;8.85;;;;;;;12.40;97.04;102335.56;5029440;28;20044;-51
2021/10/07 02:46:38;;;;;;;11.70;8.88;;;;;;;12.39;97.19;102333.88;5031176;28;20411;-51
2021/10/07 02:49:06;;;;;;;14.15;9.57;;;;;;;12.38;96.45;102344.00;5031861;28;20057;-52
2021/10/07 02:51:34;;;;;;;12.60;9.25;;;;;;;12.34;96.80;102340.94;5030202;28;20124;-50
2021/10/07 02:54:01;;;;;;;10.25;7.30;;;;;;;12.32;97.08;102345.81;5031013;28;20378;-47
2021/10/07 02:56:29;;;;;;;11.98;8.35;;;;;;;12.33;97.27;102349.38;5031784;28;20055;-52
2021/10/07 02:58:56;;;;;;;13.18;8.57;;;;;;;12.36;97.67;102349.72;5030922;28;20038;-50
2021/10/07 03:01:26;;;;;;;12.45;8.95;;;;;;;12.39;96.67;102339.34;5031726;28;20052;-50
2021/10/07 03:03:54;;;;;;;10.95;8.13;;;;;;;12.39;97.05;102344.81;5030833;28;20050;-50
2021/10/07 03:06:22;;;;;;;11.48;8.60;;;;;;;12.39;96.54;102347.56;5031570;28;20056;-51
2021/10/07 03:08:53;;;;;;;10.20;7.88;;;;;;;12.35;96.31;102355.44;5031749;28;20045;-51
2021/10/07 03:11:21;;;;;;;12.32;8.63;;;;;;;12.29;95.68;102359.97;5031239;28;20045;-51
2021/10/07 03:13:49;;;;;;;13.40;8.32;;;;;;;12.24;96.76;102370.78;5030815;28;20041;-50
2021/10/07 03:16:16;;;;;;;11.80;8.15;;;;;;;12.22;96.57;102364.72;5034196;28;20044;-51
2021/10/07 03:18:44;;;;;;;14.32;8.48;;;;;;;12.20;96.35;102366.03;5041752;28;20061;-49
2021/10/07 03:21:16;;;;;;;11.55;8.10;;;;;;;12.19;97.26;102367.09;5041828;28;20067;-45
2021/10/07 03:23:43;;;;;;;11.38;7.95;;;;;;;12.21;96.82;102375.91;5041009;28;20456;-54
2021/10/07 03:26:12;;;;;;;11.63;8.20;;;;;;;12.21;97.11;102373.16;5034583;28;20068;-54
2021/10/07 03:28:40;;;;;;;11.88;8.40;;;;;;;12.24;96.81;102378.13;5034973;28;20496;-52
2021/10/07 03:31:07;;;;;;;12.98;8.05;;;;;;;12.26;96.64;102379.56;5035180;28;20045;-50
2021/10/07 03:33:35;;;;;;;14.80;8.18;;;;;;;12.29;96.75;102378.25;5034567;28;20046;-52
2021/10/07 03:36:03;;;;;;;12.85;8.32;;;;;;;12.26;96.14;102378.72;5034694;28;20045;-48
2021/10/07 03:38:31;;;;;;;11.15;7.93;;;;;;;12.23;96.46;102374.59;5035304;28;20049;-48
2021/10/07 03:40:59;;;;;;;10.77;7.63;;;;;;;12.26;96.20;102381.47;5035148;28;20051;-50
2021/10/07 03:43:27;;;;;;;11.93;8.50;;;;;;;12.24;96.47;102381.72;5034125;28;20039;-49
2021/10/07 03:45:54;;;;;;;11.90;7.90;;;;;;;12.24;96.79;102387.19;5034464;28;20057;-45
2021/10/07 03:48:22;;;;;;;9.77;7.15;;;;;;;12.24;96.45;102381.72;5034641;28;20048;-49
2021/10/07 03:50:49;;;;;;;11.40;8.00;;;;;;;12.24;96.32;102386.34;5035071;28;20045;-49
2021/10/07 03:53:17;;;;;;;10.30;7.65;;;;;;;12.24;96.11;102386.34;5034307;28;20107;-49
2021/10/07 03:55:45;;;;;;;12.63;7.68;;;;;;;12.19;95.59;102392.53;5034240;28;20093;-47
2021/10/07 03:58:12;;;;;;;12.13;7.93;;;;;;;12.21;96.12;102393.13;5034465;28;20117;-49
2021/10/07 04:00:40;;;;;;;9.50;6.88;;;;;;;12.20;95.96;102398.84;5034813;28;20037;-48
2021/10/07 04:03:08;;;;;;;13.27;7.60;;;;;;;12.17;95.86;102391.97;5034394;28;20293;-46
2021/10/07 04:05:35;;;;;;;10.35;7.80;;;;;;;12.17;95.48;102410.22;5034240;28;20047;-50
2021/10/07 04:08:04;;;;;;;12.85;8.25;;;;;;;12.15;95.94;102411.31;5034906;28;20050;-50
2021/10/07 04:10:32;;;;;;;12.13;9.27;;;;;;;12.12;95.71;102416.41;5034248;28;20116;-45
2021/10/07 04:13:21;;;;;;;14.57;8.55;;;;;;;12.11;95.81;102421.06;5034197;28;20049;-48
2021/10/07 04:16:09;;;;;;;12.00;8.82;;;;;;;12.11;95.93;102426.50;5021638;28;20562;-49
2021/10/07 04:18:56;;;;;;;12.40;9.15;;;;;;;12.11;96.34;102422.97;5033967;28;20416;-52
2021/10/07 04:21:44;;;;;;;11.55;8.85;;;;;;;12.12;96.80;102425.47;5033837;28;20053;-49
2021/10/07 04:24:31;;;;;;;11.00;8.32;;;;;;;12.11;96.67;102433.88;5030537;28;20050;-49
2021/10/07 04:27:19;;;;;;;9.95;7.50;;;;;;;12.09;96.13;102427.81;5033853;28;20111;-49
2021/10/07 04:30:08;;;;;;;12.23;7.68;;;;;;;12.06;96.68;102436.50;5034022;28;20052;-47
2021/10/07 04:32:57;;;;;;;9.50;7.32;;;;;;;12.01;96.66;102436.41;5033393;28;20037;-50
2021/10/07 04:35:44;;;;;;;8.73;6.90;;;;;;;11.97;96.63;102432.47;5032716;28;20400;-49
2021/10/07 04:38:32;;;;;;;8.93;7.30;;;;;;;11.98;97.04;102442.31;5032685;28;20053;-49
2021/10/07 04:41:20;;;;;;;9.98;7.43;;;;;;;11.99;97.44;102444.00;5033646;28;20061;-50
2021/10/07 04:44:07;;;;;;;10.50;7.75;;;;;;;11.96;96.66;102445.28;5033012;28;20416;-47
2021/10/07 04:46:55;;;;;;;9.55;6.85;;;;;;;11.94;97.33;102451.00;5028705;28;20041;-49
2021/10/07 04:49:42;;;;;;;8.48;6.53;;;;;;;11.96;96.72;102456.22;5031143;28;20037;-49
2021/10/07 04:52:10;;;;;;;9.63;6.97;;;;;;;11.96;97.66;102453.50;5033826;28;20522;-51
2021/10/07 04:54:38;;;;;;;10.82;6.38;;;;;;;12.00;96.73;102448.38;5033302;28;20435;-50
2021/10/07 04:57:05;;;;;;;9.93;6.10;;;;;;;11.98;96.86;102453.22;5032858;28;20087;-50
2021/10/07 04:59:33;;;;;;;10.25;5.85;;;;;;;11.94;96.34;102459.19;5032801;28;20049;-49
2021/10/07 05:02:01;;;;;;;8.45;5.13;;;;;;;11.91;95.99;102458.84;5033629;28;20135;-50
2021/10/07 05:04:28;;;;;;;10.57;5.95;;;;;;;11.85;95.84;102459.75;5033492;28;20128;-51
2021/10/07 05:06:56;;;;;;;11.60;6.22;;;;;;;11.80;96.66;102457.72;5033262;28;20046;-50
2021/10/07 05:09:24;;;;;;;8.73;6.35;;;;;;;11.80;96.96;102457.72;5032891;28;20053;-53
2021/10/07 05:11:51;;;;;;;12.90;6.72;;;;;;;11.81;96.92;102469.47;5033852;28;20128;-50
2021/10/07 05:14:19;;;;;;;12.18;7.35;;;;;;;11.79;96.81;102468.91;5033094;28;20534;-52
2021/10/07 05:16:46;;;;;;;10.85;7.25;;;;;;;11.78;98.00;102470.78;5032484;28;20501;-52
2021/10/07 05:19:17;;;;;;;11.00;8.45;;;;;;;11.81;98.08;102473.06;5032456;28;20037;-54
2021/10/07 05:21:45;;;;;;;13.32;9.50;;;;;;;11.80;97.67;102485.03;5033360;28;20044;-52
2021/10/07 05:24:12;;;;;;;13.18;9.98;;;;;;;11.80;98.11;102478.72;5032489;28;20496;-52
2021/10/07 05:26:40;;;;;;;12.93;9.77;;;;;;;11.78;98.54;102487.16;5032921;28;20053;-54
2021/10/07 05:29:08;;;;;;;11.73;9.82;;;;;;;11.81;98.71;102492.16;5032214;28;20500;-50
2021/10/07 05:31:35;;;;;;;14.27;10.88;;;;;;;11.84;98.11;102494.41;5033287;28;20041;-50
2021/10/07 05:34:03;;;;;;;15.00;10.63;;;;;;;11.85;97.59;102495.25;5032738;28;20088;-52
2021/10/07 05:36:31;;;;;;;12.18;9.02;;;;;;;11.81;97.65;102497.63;5032750;28;20530;-50
2021/10/07 05:38:59;;;;;;;12.48;9.93;;;;;;;11.83;98.17;102500.94;5031283;28;20037;-50
2021/10/07 05:41:34;;;;;;;11.81;9.34;;;;;;;11.83;98.54;102494.66;4945033;28;10000969;-51
2021/10/07 05:44:02;;;;;;;11.68;8.93;;;;;;;11.83;98.09;102494.66;4677928;28;10000655;-55
2021/10/07 05:46:29;;;;;;;13.60;9.50;;;;;;;11.85;97.84;102500.72;5030349;28;20034;-51
2021/10/07 05:48:57;;;;;;;12.90;8.77;;;;;;;11.84;98.26;102499.88;5029932;28;20045;-53
2021/10/07 05:51:25;;;;;;;12.63;8.95;;;;;;;11.81;97.20;102508.56;5029628;28;20041;-52
2021/10/07 05:53:52;;;;;;;11.93;9.27;;;;;;;11.69;97.70;102499.50;5029730;28;20317;-51
2021/10/07 05:56:20;;;;;;;11.35;7.60;;;;;;;11.64;97.85;102507.53;5030390;28;20045;-52
2021/10/07 05:58:47;;;;;;;13.10;8.70;;;;;;;11.62;98.33;102498.78;5030126;28;20048;-48
2021/10/07 06:01:19;;;;;;;10.45;8.10;;;;;;;11.53;97.42;102509.19;5029994;28;20076;-52
2021/10/07 06:03:46;;;;;;;11.85;8.27;;;;;;;11.49;97.84;102506.06;5030105;28;20038;-54
2021/10/07 06:06:14;;;;;;;12.18;9.00;;;;;;;11.52;99.07;102511.09;5029571;28;20046;-53
2021/10/07 06:08:42;;;;;;;11.20;8.52;;;;;;;11.57;98.90;102506.81;5028800;28;20261;-51
2021/10/07 06:11:09;;;;;;;15.63;8.60;;;;;;;11.63;99.31;102505.88;5029463;28;20055;-52
2021/10/07 06:13:37;;;;;;;11.82;8.75;;;;;;;11.65;98.78;102511.94;5030115;28;20488;-51
2021/10/07 06:16:04;;;;;;;11.60;8.85;;;;;;;11.65;98.42;102517.41;5029651;28;20049;-54
2021/10/07 06:18:34;;;;;;;12.23;9.25;;;;;;;11.64;98.64;102522.06;5029372;28;20123;-54
2021/10/07 06:21:01;;;;;;;11.30;8.40;;;;;;;11.67;98.55;102526.22;5028813;28;20045;-51
2021/10/07 06:23:29;;;;;;;15.32;7.90;;;;;;;11.68;97.93;102527.88;5029523;28;20045;-47
2021/10/07 06:25:57;;;;;;;10.88;8.02;;;;;;;11.65;98.69;102525.59;5029285;28;20132;-52
2021/10/07 06:28:25;;;;;;;12.50;7.82;;;;;;;11.66;98.27;102533.53;5029926;28;20045;-53
2021/10/07 06:30:52;;;;;;;10.07;6.38;;;;;;;11.69;98.36;102532.28;5028749;28;20037;-50
2021/10/07 06:33:20;;;;;;;10.93;7.78;;;;;;;11.69;98.29;102533.09;5029832;28;20037;-52
2021/10/07 06:35:47;;;;;;;11.45;8.50;;;;;;;11.71;99.12;102535.56;5029494;28;20511;-50
2021/10/07 06:38:15;;;;;;;12.77;8.68;;;;;;;11.76;98.65;102543.06;5029222;28;20041;-52
2021/10/07 06:40:42;;;;;;;14.27;9.07;;;;;;;11.74;98.90;102546.06;5029565;28;20056;-51
2021/10/07 06:43:10;;;;;;;10.40;6.30;;;;;;;11.80;98.79;102549.75;5028565;28;20041;-52
2021/10/07 06:45:38;;;;;;;11.32;7.85;;;;;;;11.79;98.90;102551.66;5029439;28;20050;-51
2021/10/07 06:48:05;;;;;;;13.38;9.35;;;;;;;11.83;98.66;102565.66;5029325;28;20037;-52
2021/10/07 06:50:34;;;;;;;11.55;7.43;;;;;;;11.78;98.50;102563.63;5028329;28;20178;-50
2021/10/07 06:53:02;;;;;;;12.05;8.45;;;;;;;11.76;99.01;102575.84;5028871;28;20041;-50
2021/10/07 06:55:30;;;;;;;10.30;7.75;;;;;;;11.77;98.38;102570.16;5029265;28;20041;-52
2021/10/07 06:57:57;;;;;;;9.82;7.50;;;;;;;11.73;98.09;102572.50;5029685;28;20065;-54
2021/10/07 07:00:25;;;;;;;10.52;8.13;;;;;;;11.72;98.42;102581.78;5028006;28;20385;-54
2021/10/07 07:02:53;;;;;;;12.77;8.50;;;;;;;11.72;99.11;102584.50;5029075;28;20433;-54
2021/10/07 07:05:22;;;;;;;12.50;8.85;;;;;;;11.69;98.26;102589.63;5029386;28;20135;-54
2021/10/07 07:07:49;;;;;;;14.18;8.90;;;;;;;11.69;99.77;102589.63;5031493;28;20451;-52
2021/10/07 07:10:18;;;;;;;10.43;7.80;;;;;;;11.69;99.49;102582.25;5031593;28;20053;-50
2021/10/07 07:12:50;;;;;;;11.25;8.15;;;;;;;11.71;100.00;102592.91;5031832;28;20120;-50
2021/10/07 07:15:18;;;;;;;12.13;9.35;;;;;;;11.77;99.78;102589.28;5031059;28;20072;-51
2021/10/07 07:17:47;;;;;;;12.45;9.65;;;;;;;11.77;99.03;102592.00;5030977;28;20101;-51
2021/10/07 07:20:15;;;;;;;13.10;9.55;;;;;;;11.74;99.48;102595.22;5030461;28;20047;-49
2021/10/07 07:23:06;;;;;;;13.23;10.00;;;;;;;11.77;99.88;102600.19;5030657;28;20057;-51
2021/10/07 07:25:54;;;;;;;13.50;10.35;;;;;;;11.82;99.63;102599.50;5025820;28;20104;-54
2021/10/07 07:28:22;;;;;;;12.80;9.73;;;;;;;11.89;100.00;102600.28;5029544;28;20049;-51
2021/10/07 07:30:50;;;;;;;12.55;9.48;;;;;;;11.96;99.65;102608.38;5031302;28;20046;-52
2021/10/07 07:33:21;;;;;;;13.73;9.80;;;;;;;12.00;100.00;102610.41;5031330;28;20067;-51
2021/10/07 07:35:48;;;;;;;13.35;10.93;;;;;;;12.02;100.00;102615.63;5030586;28;20057;-50
2021/10/07 07:38:16;;;;;;;15.48;11.15;;;;;;;12.01;99.69;102616.69;5031121;28;20037;-51
2021/10/07 07:40:44;;;;;;;16.88;12.32;;;;;;;12.02;99.80;102623.81;5031358;28;20049;-53
2021/10/07 07:43:18;;;;;;;14.48;10.60;;;;;;;12.04;99.89;102619.78;5030908;28;20037;-50
2021/10/07 07:45:50;;;;;;;16.25;10.82;;;;;;;12.09;100.00;102622.63;5030803;28;20133;-54
2021/10/07 07:48:19;;;;;;;14.52;10.90;;;;;;;12.13;99.91;102617.56;5030633;28;20441;-53
2021/10/07 07:50:47;;;;;;;14.70;10.57;;;;;;;12.15;99.80;102624.44;5029334;28;20452;-52
2021/10/07 07:53:14;;;;;;;14.13;10.07;;;;;;;12.18;100.00;102622.31;5031003;28;20041;-55
2021/10/07 07:55:42;;;;;;;15.70;10.82;;;;;;;12.22;100.00;102624.34;5030689;28;21741;-49
2021/10/07 07:58:11;;;;;;;20.45;12.75;;;;;;;12.21;99.22;102622.66;5030844;28;20518;-52
2021/10/07 08:00:39;;;;;;;15.80;11.60;;;;;;;12.23;99.71;102631.47;5031252;28;20041;-51
2021/10/07 08:03:07;;;;;;;19.50;13.95;;;;;;;12.21;99.64;102630.88;5034545;28;20050;-52
2021/10/07 08:05:35;;;;;;;19.13;14.18;;;;;;;12.24;99.48;102638.63;5034260;28;20048;-54
2021/10/07 08:08:03;;;;;;;17.63;12.50;;;;;;;12.28;99.56;102642.53;5035093;28;20053;-50
2021/10/07 08:10:30;;;;;;;16.02;11.30;;;;;;;12.33;100.00;102652.75;5034634;28;20500;-47
2021/10/07 08:13:00;;;;;;;15.50;9.95;;;;;;;12.39;99.54;102645.50;5034265;28;20049;-48
2021/10/07 08:15:28;;;;;;;16.23;9.82;;;;;;;12.42;98.90;102647.78;5033810;28;20504;-51
2021/10/07 08:17:55;;;;;;;13.13;8.75;;;;;;;12.42;99.46;102645.06;5030497;28;20069;-52
2021/10/07 08:20:24;;;;;;;21.13;15.00;;;;;;;12.43;99.04;102652.19;5033269;28;20399;-48
2021/10/07 08:22:52;;;;;;;18.38;14.07;;;;;;;12.41;99.21;102654.31;5034546;28;20049;-51
2021/10/07 08:25:21;;;;;;;20.88;15.23;;;;;;;12.39;98.88;102657.31;5034293;28;20053;-54
2021/10/07 08:27:49;;;;;;;21.55;15.75;;;;;;;12.35;99.47;102651.47;5033583;28;20048;-54
2021/10/07 08:30:18;;;;;;;17.13;12.40;;;;;;;12.40;100.00;102647.19;5032252;28;20045;-52
2021/10/07 08:32:45;;;;;;;17.52;11.45;;;;;;;12.43;99.72;102657.66;5033496;28;20049;-52
2021/10/07 08:35:13;;;;;;;16.80;11.25;;;;;;;12.47;99.11;102648.75;5034197;28;20061;-51
2021/10/07 08:37:41;;;;;;;14.00;9.65;;;;;;;12.52;99.27;102648.03;5032063;28;20044;-52
2021/10/07 08:40:10;;;;;;;18.23;10.85;;;;;;;12.59;98.71;102646.03;5032823;28;20133;-51
2021/10/07 08:42:40;;;;;;;14.77;9.60;;;;;;;12.56;98.63;102654.72;5033953;28;20049;-52
2021/10/07 08:45:11;;;;;;;12.55;8.55;;;;;;;12.55;98.26;102655.75;5033405;28;20411;-51
2021/10/07 08:47:40;;;;;;;12.15;8.88;;;;;;;12.50;98.26;102658.38;5033471;28;20073;-56
2021/10/07 08:50:10;;;;;;;12.07;8.77;;;;;;;12.46;97.74;102662.63;5033352;28;20416;-50
2021/10/07 08:52:38;;;;;;;10.50;7.63;;;;;;;12.41;97.94;102659.78;5032439;28;20053;-51
2021/10/07 08:55:06;;;;;;;13.60;8.80;;;;;;;12.40;98.74;102669.06;5033575;28;20055;-52
2021/10/07 08:57:34;;;;;;;14.00;9.70;;;;;;;12.35;98.19;102673.31;5033844;28;20048;-49
2021/10/07 09:00:04;;;;;;;13.35;9.60;;;;;;;12.30;98.78;102675.94;5033313;28;20045;-49
2021/10/07 09:02:33;;;;;;;12.68;8.80;;;;;;;12.28;98.97;102672.59;5033555;28;20041;-54
2021/10/07 09:05:15;;;;;;;14.65;9.95;;;;;;;12.28;99.79;102672.59;5031971;28;20045;-55
2021/10/07 09:08:05;;;;;;;11.50;7.22;;;;;;;12.33;99.76;102680.09;5021496;28;20041;-48
2021/10/07 09:10:39;;;;;;;12.63;8.68;;;;;;;12.33;99.17;102683.66;5033085;28;20052;-49
2021/10/07 09:13:15;;;;;;;15.55;10.27;;;;;;;12.30;99.76;102681.41;5031046;28;20052;-53
2021/10/07 09:15:45;;;;;;;12.32;9.23;;;;;;;12.26;99.69;102680.19;5032751;28;20116;-49
2021/10/07 09:18:14;;;;;;;12.75;8.93;;;;;;;12.26;99.52;102674.72;5032756;28;20160;-51
2021/10/07 09:20:45;;;;;;;14.50;9.98;;;;;;;12.31;99.82;102676.75;5032521;28;20037;-50
2021/10/07 09:23:25;;;;;;;18.58;9.90;;;;;;;12.35;100.00;102678.78;5031407;28;20037;-53
2021/10/07 09:25:53;;;;;;;14.30;10.20;;;;;;;12.40;99.62;102677.25;5030766;28;20384;-49
2021/10/07 09:28:21;;;;;;;14.98;10.15;;;;;;;12.40;100.00;102680.00;5032739;28;20049;-50
2021/10/07 09:30:57;;;;;;;14.35;10.13;;;;;;;12.44;100.00;102681.19;5030660;28;20049;-51
2021/10/07 09:33:37;;;;;;;12.77;7.05;;;;;;;12.58;100.00;102678.00;5033102;28;20061;-51
2021/10/07 09:36:16;;;;;;;13.18;9.50;;;;;;;12.66;100.00;102679.56;5032664;28;20038;-54
2021/10/07 09:38:45;;;;;;;13.02;8.60;;;;;;;12.72;100.00;102686.84;5033012;28;20038;-54
2021/10/07 09:41:16;;;;;;;14.45;9.50;;;;;;;12.69;99.03;102690.03;5032167;28;20034;-50
2021/10/07 09:43:51;;;;;;;14.35;9.68;;;;;;;12.71;99.12;102687.88;5032407;28;20049;-51
2021/10/07 09:46:43;;;;;;;21.67;10.48;;;;;;;12.71;99.15;102690.63;5031944;28;20045;-54
2021/10/07 09:49:16;;;;;;;13.20;9.95;;;;;;;12.64;98.05;102689.91;5032521;28;20538;-52
2021/10/07 09:51:48;;;;;;;13.50;9.38;;;;;;;12.60;98.66;102696.06;5029302;28;20107;-51
2021/10/07 09:54:20;;;;;;;13.32;9.63;;;;;;;12.61;99.10;102698.59;5032554;28;20068;-52
2021/10/07 09:56:54;;;;;;;18.17;11.45;;;;;;;12.62;98.75;102700.22;5032571;28;20033;-53
2021/10/07 09:59:22;;;;;;;21.77;10.93;;;;;;;12.63;98.89;102701.91;5031589;28;20404;-52
2021/10/07 10:01:51;;;;;;;16.42;10.90;;;;;;;12.66;99.48;102695.97;5032242;28;20521;-54
2021/10/07 10:04:19;;;;;;;16.85;10.40;;;;;;;12.67;98.74;102700.34;5031707;28;20046;-52
2021/10/07 10:06:47;;;;;;;14.25;10.48;;;;;;;12.66;99.11;102698.69;5032878;28;20053;-54
2021/10/07 10:09:14;;;;;;;16.70;12.75;;;;;;;12.67;98.81;102703.09;5031152;28;20060;-55
2021/10/07 10:11:42;;;;;;;20.45;14.55;;;;;;;12.68;98.92;102696.56;5030632;28;20045;-54
2021/10/07 10:14:10;;;;;;;18.23;12.52;;;;;;;12.62;98.38;102700.22;5031038;28;20038;-52
2021/10/07 10:16:37;;;;;;;16.73;11.70;;;;;;;12.49;98.53;102706.75;5031703;28;20045;-54
2021/10/07 10:19:06;;;;;;;21.20;16.70;;;;;;;12.38;98.81;102704.00;5030321;28;20045;-54
2021/10/07 10:21:37;;;;;;;18.70;13.25;;;;;;;12.35;100.00;102708.84;5031049;28;20045;-51
2021/10/07 10:24:10;;;;;;;19.98;13.27;;;;;;;12.33;100.00;102708.25;5031662;28;20057;-48
2021/10/07 10:26:39;;;;;;;16.55;11.43;;;;;;;12.33;100.00;102721.91;5030744;28;20053;-55
2021/10/07 10:29:33;;;;;;;15.88;11.07;;;;;;;12.34;100.00;102718.13;5031678;28;20484;-54
2021/10/07 10:32:03;;;;;;;14.80;10.63;;;;;;;12.40;100.00;102718.28;5029279;28;20139;-55
2021/10/07 10:34:42;;;;;;;16.88;11.52;;;;;;;12.44;100.00;102719.47;5031499;28;20461;-56
2021/10/07 10:37:11;;;;;;;18.27;10.75;;;;;;;12.47;100.00;102721.72;5031977;28;20041;-49
2021/10/07 10:39:40;;;;;;;14.02;10.20;;;;;;;12.45;99.81;102727.44;5032092;28;20048;-52
2021/10/07 10:42:22;;;;;;;18.88;12.07;;;;;;;12.50;100.00;102724.81;5031313;28;20488;-49
2021/10/07 10:44:57;;;;;;;20.27;11.98;;;;;;;12.51;99.78;102731.16;5029479;28;20815;-52
2021/10/07 10:47:27;;;;;;;14.43;10.05;;;;;;;12.51;99.90;102725.69;5031960;28;20048;-52
2021/10/07 10:50:04;;;;;;;15.10;10.95;;;;;;;12.51;99.72;102720.22;5031633;28;20103;-48
2021/10/07 10:52:32;;;;;;;;;;;;;;;12.52;99.68;102730.06;5032053;28;20124;-53
2021/10/07 10:55:14;;;;;;;15.15;10.70;;;;;;;12.52;99.74;102721.84;5031350;28;20299;-53
2021/10/07 10:57:52;;;;;;;15.95;11.45;;;;;;;12.55;100.00;102727.72;5031063;28;20527;-51
2021/10/07 11:00:25;;;;;;;17.50;11.73;;;;;;;12.57;99.98;102735.66;5031669;28;20049;-54
2021/10/07 11:02:54;;;;;;;14.40;10.73;;;;;;;12.55;99.51;102726.84;5031544;28;20034;-50
2021/10/07 11:05:27;;;;;;;23.83;12.68;;;;;;;12.64;100.00;102735.56;5030099;28;20053;-46
2021/10/07 11:08:19;;;;;;;22.90;12.52;;;;;;;12.78;100.00;102737.84;5031582;28;20050;-49
2021/10/07 11:11:08;;;;;;;16.92;13.02;;;;;;;12.79;99.17;102742.25;5030354;28;20049;-53
2021/10/07 11:13:45;;;;;;;16.67;13.10;;;;;;;12.72;98.14;102741.53;5031028;28;20044;-49
2021/10/07 11:16:17;;;;;;;19.23;13.57;;;;;;;12.67;98.64;102743.28;5019243;28;20053;-49
2021/10/07 11:18:45;;;;;;;18.33;12.45;;;;;;;12.64;98.64;102739.13;5031033;28;20123;-52
2021/10/07 11:21:22;;;;;;;15.52;11.55;;;;;;;12.68;98.87;102745.81;5031108;28;20053;-53
2021/10/07 11:23:55;;;;;;;18.98;12.73;;;;;;;12.72;99.17;102747.00;5030821;28;20045;-56
2021/10/07 11:26:34;;;;;;;16.33;10.07;;;;;;;12.78;98.49;102748.78;5031022;28;20041;-56
2021/10/07 11:29:02;;;;;;;18.65;12.68;;;;;;;12.82;98.45;102748.31;5031355;28;20046;-52
2021/10/07 11:31:32;;;;;;;17.70;12.65;;;;;;;12.84;98.05;102748.91;5031464;28;20502;-52
2021/10/07 11:34:00;;;;;;;17.23;12.05;;;;;;;12.83;97.59;102739.03;5030639;28;20500;-52
2021/10/07 11:36:30;;;;;;;16.75;11.77;;;;;;;12.84;97.58;102747.00;5032487;28;20096;-50